createdAt,value
2022-10-23T00:00:47.892Z,11.80
2022-10-23T00:04:31.996Z,11.78
2022-10-23T00:08:14.721Z,11.77
2022-10-23T00:11:57.432Z,11.74
2022-10-23T00:15:40.187Z,11.70
2022-10-23T00:19:22.988Z,11.69
2022-10-23T00:23:07.054Z,11.65
2022-10-23T00:26:50.574Z,11.57
2022-10-23T00:30:33.350Z,11.58
2022-10-23T00:34:16.007Z,11.59
2022-10-23T00:37:58.655Z,11.58
2022-10-23T00:41:42.942Z,11.52
2022-10-23T00:45:26.931Z,11.44
2022-10-23T00:52:54.852Z,11.24
2022-10-23T00:56:39.254Z,11.15
2022-10-23T01:00:26.830Z,11.09
2022-10-23T01:04:09.780Z,11.05
2022-10-23T01:07:55.910Z,11.00
2022-10-23T01:11:44.690Z,10.93
2022-10-23T01:15:33.190Z,10.88
2022-10-23T01:19:21.940Z,10.82
2022-10-23T01:23:24.361Z,10.79
2022-10-23T01:27:22.905Z,10.74
2022-10-23T01:31:10.542Z,10.72
2022-10-23T01:34:58.455Z,10.68
2022-10-23T01:38:44.929Z,10.69
2022-10-23T01:42:30.832Z,10.70
2022-10-23T01:46:17.449Z,10.70
2022-10-23T01:50:01.171Z,10.66
2022-10-23T01:53:45.493Z,10.61
2022-10-23T01:57:31.375Z,10.58
2022-10-23T02:01:14.913Z,10.54
2022-10-23T02:05:00.438Z,10.50
2022-10-23T02:08:43.198Z,10.47
2022-10-23T02:12:34.130Z,10.46
2022-10-23T02:16:22.979Z,10.42
2022-10-23T02:20:14.837Z,10.39
2022-10-23T02:24:01.200Z,10.37
2022-10-23T02:27:50.416Z,10.32
2022-10-23T02:31:33.419Z,10.28
2022-10-23T02:35:16.586Z,10.23
2022-10-23T02:38:59.370Z,10.21
2022-10-23T02:42:46.628Z,10.18
2022-10-23T02:46:35.254Z,10.18
2022-10-23T02:50:26.126Z,10.15
2022-10-23T02:54:13.238Z,10.17
2022-10-23T02:57:58.354Z,10.17
2022-10-23T03:01:47.411Z,10.14
2022-10-23T03:05:32.834Z,10.14
2022-10-23T03:09:15.529Z,10.11
2022-10-23T03:12:58.325Z,10.05
2022-10-23T03:16:42.463Z,10.03
2022-10-23T03:20:25.374Z,10.00
2022-10-23T03:24:08.352Z,9.98
2022-10-23T03:27:51.100Z,9.96
2022-10-23T03:31:33.754Z,9.91
2022-10-23T03:35:17.996Z,9.90
2022-10-23T03:39:00.676Z,9.90
2022-10-23T03:42:43.432Z,9.87
2022-10-23T03:46:26.092Z,9.85
2022-10-23T03:50:09.610Z,9.81
2022-10-23T03:53:53.684Z,9.84
2022-10-23T03:57:36.537Z,9.85
2022-10-23T04:01:19.325Z,9.85
2022-10-23T04:05:02.065Z,9.84
2022-10-23T04:08:47.513Z,9.84
2022-10-23T04:12:31.725Z,9.83
2022-10-23T04:16:14.584Z,9.81
2022-10-23T04:19:57.642Z,9.81
2022-10-23T04:23:40.408Z,9.80
2022-10-23T04:27:23.199Z,9.79
2022-10-23T04:31:07.450Z,9.79
2022-10-23T04:34:50.122Z,9.76
2022-10-23T04:38:33.065Z,9.73
2022-10-23T04:42:18.282Z,9.72
2022-10-23T04:46:01.066Z,9.70
2022-10-23T04:49:45.129Z,9.69
2022-10-23T04:53:28.284Z,9.68
2022-10-23T04:57:10.979Z,9.66
2022-10-23T05:00:54.079Z,9.64
2022-10-23T05:04:36.891Z,9.64
2022-10-23T05:08:20.934Z,9.61
2022-10-23T05:12:03.637Z,9.60
2022-10-23T05:15:47.067Z,9.59
2022-10-23T05:19:32.294Z,9.56
2022-10-23T05:23:16.235Z,9.55
2022-10-23T05:27:00.276Z,9.54
2022-10-23T05:30:46.077Z,9.52
2022-10-23T05:34:29.087Z,9.50
2022-10-23T05:38:12.469Z,9.48
2022-10-23T05:41:56.128Z,9.47
2022-10-23T05:45:40.120Z,9.46
2022-10-23T05:49:25.062Z,9.44
2022-10-23T05:53:07.692Z,9.42
2022-10-23T05:56:50.336Z,9.40
2022-10-23T06:00:33.432Z,9.40
2022-10-23T06:04:17.492Z,9.42
2022-10-23T06:08:00.610Z,9.48
2022-10-23T06:11:43.630Z,9.54
2022-10-23T06:15:26.310Z,9.62
2022-10-23T06:19:12.471Z,9.73
2022-10-23T06:22:56.578Z,9.73
2022-10-23T06:26:39.223Z,9.75
2022-10-23T06:30:21.866Z,9.78
2022-10-23T06:34:06.150Z,9.84
2022-10-23T06:37:48.895Z,9.95
2022-10-23T06:41:32.939Z,10.15
2022-10-23T06:45:15.656Z,10.30
2022-10-23T06:48:58.326Z,10.50
2022-10-23T06:52:47.122Z,10.65
2022-10-23T06:56:31.831Z,10.78
2022-10-23T07:00:14.966Z,10.89
2022-10-23T07:03:57.923Z,10.99
2022-10-23T07:07:40.616Z,11.10
2022-10-23T07:11:26.155Z,11.23
2022-10-23T07:15:10.820Z,11.37
2022-10-23T07:18:58.831Z,11.48
2022-10-23T07:22:41.784Z,11.54
2022-10-23T07:26:25.056Z,11.61
2022-10-23T07:30:13.573Z,11.70
2022-10-23T07:33:56.279Z,11.74
2022-10-23T07:37:39.384Z,11.71
2022-10-23T07:41:22.292Z,11.74
2022-10-23T07:45:07.403Z,11.81
2022-10-23T07:48:51.522Z,11.84
2022-10-23T07:52:36.167Z,11.90
2022-10-23T07:56:22.424Z,11.95
2022-10-23T08:00:06.201Z,12.02
2022-10-23T08:03:48.974Z,12.06
2022-10-23T08:07:33.037Z,12.16
2022-10-23T08:11:16.621Z,12.27
2022-10-23T08:14:59.227Z,12.40
2022-10-23T08:18:42.733Z,12.55
2022-10-23T08:22:25.411Z,12.73
2022-10-23T08:26:10.047Z,12.86
2022-10-23T08:29:52.710Z,12.97
2022-10-23T08:33:35.480Z,13.07
2022-10-23T08:37:18.290Z,13.20
2022-10-23T08:41:02.739Z,13.35
2022-10-23T08:44:52.983Z,13.49
2022-10-23T08:48:39.197Z,13.67
2022-10-23T08:52:26.366Z,13.78
2022-10-23T08:56:14.135Z,13.95
2022-10-23T09:00:00.291Z,14.06
2022-10-23T09:03:44.505Z,14.16
2022-10-23T09:07:35.532Z,14.28
2022-10-23T09:11:22.323Z,14.34
2022-10-23T09:15:22.411Z,14.41
2022-10-23T09:19:16.333Z,14.50
2022-10-23T09:23:00.623Z,14.62
2022-10-23T09:26:43.222Z,14.76
2022-10-23T09:30:29.310Z,14.97
2022-10-23T09:34:20.510Z,15.13
2022-10-23T09:38:03.265Z,15.28
2022-10-23T09:41:45.960Z,15.47
2022-10-23T09:45:32.811Z,15.61
2022-10-23T09:49:20.036Z,15.73
2022-10-23T09:53:02.878Z,15.79
2022-10-23T10:00:51.130Z,15.94
2022-10-23T10:04:41.933Z,16.01
2022-10-23T10:08:30.037Z,16.13
2022-10-23T10:12:30.943Z,16.24
2022-10-23T10:16:20.691Z,16.34
2022-10-23T10:20:13.502Z,16.45
2022-10-23T10:24:01.531Z,16.59
2022-10-23T10:27:50.169Z,16.69
2022-10-23T10:31:43.644Z,16.81
2022-10-23T10:35:37.228Z,16.91
2022-10-23T10:39:49.705Z,17.00
2022-10-23T10:43:39.882Z,17.13
2022-10-23T10:47:29.111Z,17.27
2022-10-23T10:51:16.649Z,17.42
2022-10-23T10:55:04.630Z,17.59
2022-10-23T10:58:49.853Z,17.72
2022-10-23T11:02:39.467Z,17.81
2022-10-23T11:06:24.670Z,17.97
2022-10-23T11:10:16.774Z,18.11
2022-10-23T11:13:59.547Z,18.24
2022-10-23T11:17:47.707Z,18.38
2022-10-23T11:21:33.029Z,18.52
2022-10-23T11:25:55.050Z,18.73
2022-10-23T11:29:51.704Z,18.94
2022-10-23T11:34:14.744Z,19.14
2022-10-23T11:38:14.813Z,19.29
2022-10-23T11:41:59.158Z,19.42
2022-10-23T11:45:42.467Z,19.56
2022-10-23T11:49:26.464Z,19.69
2022-10-23T11:53:25.690Z,19.82
2022-10-23T11:57:13.033Z,19.94
2022-10-23T12:01:07.048Z,20.06
2022-10-23T12:04:52.381Z,20.17
2022-10-23T12:08:36.942Z,20.25
2022-10-23T12:12:29.557Z,20.36
2022-10-23T12:16:12.311Z,20.50
2022-10-23T12:20:03.782Z,20.60
2022-10-23T12:23:54.053Z,20.73
2022-10-23T12:27:42.586Z,20.79
2022-10-23T12:31:34.501Z,20.89
2022-10-23T12:35:30.127Z,20.91
2022-10-23T12:39:27.076Z,20.91
2022-10-23T12:43:24.562Z,20.92
2022-10-23T12:47:07.256Z,20.94
2022-10-23T12:50:52.297Z,20.98
2022-10-23T12:54:39.786Z,21.03
2022-10-23T12:58:27.220Z,21.11
2022-10-23T13:02:15.464Z,21.36
2022-10-23T13:06:02.727Z,21.61
2022-10-23T13:09:49.574Z,21.71
2022-10-23T13:13:32.403Z,21.78
2022-10-23T13:17:15.058Z,21.91
2022-10-23T13:24:48.563Z,22.07
2022-10-23T13:28:33.517Z,22.22
2022-10-23T13:32:23.181Z,22.27
2022-10-23T13:36:21.939Z,22.23
2022-10-23T13:40:07.595Z,22.23
2022-10-23T13:43:50.311Z,22.24
2022-10-23T13:47:32.942Z,22.26
2022-10-23T13:51:20.324Z,22.32
2022-10-23T13:55:03.084Z,22.36
2022-10-23T13:58:45.936Z,22.33
2022-10-23T14:02:28.775Z,22.28
2022-10-23T14:06:11.615Z,22.26
2022-10-23T14:09:55.634Z,22.30
2022-10-23T14:13:38.329Z,22.37
2022-10-23T14:17:21.187Z,22.41
2022-10-23T14:21:05.244Z,22.37
2022-10-23T14:24:48.270Z,22.32
2022-10-23T14:28:32.385Z,22.21
2022-10-23T14:32:15.159Z,22.07
2022-10-23T14:35:57.936Z,21.93
2022-10-23T14:39:40.684Z,21.82
2022-10-23T14:43:24.110Z,21.71
2022-10-23T14:47:08.207Z,21.57
2022-10-23T14:50:50.984Z,21.43
2022-10-23T14:54:36.749Z,21.28
2022-10-23T14:58:21.600Z,21.19
2022-10-23T15:02:04.255Z,21.01
2022-10-23T15:05:48.303Z,20.87
2022-10-23T15:09:32.655Z,20.74
2022-10-23T15:13:15.389Z,20.64
2022-10-23T15:16:58.100Z,20.55
2022-10-23T15:20:40.734Z,20.45
2022-10-23T15:24:24.701Z,20.33
2022-10-23T15:28:07.327Z,20.20
2022-10-23T15:31:54.403Z,20.08
2022-10-23T15:35:37.247Z,19.93
2022-10-23T15:39:23.047Z,19.81
2022-10-23T15:43:09.485Z,19.72
2022-10-23T15:46:54.374Z,19.61
2022-10-23T15:50:37.454Z,19.50
2022-10-23T15:54:20.916Z,19.38
2022-10-23T15:58:05.513Z,19.25
2022-10-23T16:01:49.800Z,19.13
2022-10-23T16:05:32.670Z,19.01
2022-10-23T16:09:15.978Z,18.89
2022-10-23T16:13:04.688Z,18.77
2022-10-23T16:16:47.335Z,18.64
2022-10-23T16:20:31.679Z,18.54
2022-10-23T16:24:14.341Z,18.45
2022-10-23T16:27:59.493Z,18.99
2022-10-23T16:31:42.140Z,19.18
2022-10-23T16:35:24.896Z,18.94
2022-10-23T16:39:10.406Z,18.70
2022-10-23T16:42:59.378Z,18.50
2022-10-23T16:46:42.159Z,18.32
2022-10-23T16:50:24.871Z,18.18
2022-10-23T16:54:11.011Z,18.05
2022-10-23T16:58:06.958Z,17.95
2022-10-23T17:01:49.728Z,17.85
2022-10-23T17:05:34.446Z,17.76
2022-10-23T17:09:19.300Z,17.67
2022-10-23T17:13:09.217Z,17.61
2022-10-23T17:16:52.979Z,17.54
2022-10-23T17:20:35.786Z,17.48
2022-10-23T17:24:20.378Z,17.42
2022-10-23T17:28:22.849Z,17.35
2022-10-23T17:32:06.038Z,17.28
2022-10-23T17:35:48.766Z,17.23
2022-10-23T17:39:32.861Z,17.19
2022-10-23T17:43:24.795Z,17.15
2022-10-23T17:47:07.510Z,17.15
2022-10-23T17:50:50.197Z,17.16
2022-10-23T17:54:34.283Z,17.16
2022-10-23T17:58:31.938Z,17.12
2022-10-23T18:02:14.688Z,17.11
2022-10-23T18:05:57.490Z,17.07
2022-10-23T18:09:41.619Z,17.04
2022-10-23T18:13:41.392Z,16.98
2022-10-23T18:17:24.100Z,16.96
2022-10-23T18:21:07.646Z,16.96
2022-10-23T18:24:51.802Z,16.91
2022-10-23T18:28:48.760Z,16.95
2022-10-23T18:32:31.457Z,16.74
2022-10-23T18:36:16.419Z,16.63
2022-10-23T18:40:00.551Z,16.60
2022-10-23T18:43:55.683Z,16.54
2022-10-23T18:47:38.426Z,16.50
2022-10-23T18:51:25.856Z,16.40
2022-10-23T18:55:11.224Z,16.37
2022-10-23T18:58:59.459Z,16.32
2022-10-23T19:02:42.192Z,16.29
2022-10-23T19:06:24.987Z,16.28
2022-10-23T19:10:08.340Z,16.25
2022-10-23T19:18:10.525Z,16.16
2022-10-23T19:21:53.547Z,16.21
2022-10-23T19:25:36.897Z,16.18
2022-10-23T19:29:21.834Z,16.16
2022-10-23T19:33:04.779Z,16.24
2022-10-23T19:36:48.792Z,16.34
2022-10-23T19:40:31.600Z,16.38
2022-10-23T19:44:15.149Z,16.41
2022-10-23T19:47:57.794Z,16.44
2022-10-23T19:51:40.496Z,16.51
2022-10-23T19:55:24.470Z,16.57
2022-10-23T19:59:07.165Z,16.64
2022-10-23T20:02:51.422Z,16.68
2022-10-23T20:06:37.601Z,16.73
2022-10-23T20:10:20.347Z,16.77
2022-10-23T20:14:05.135Z,16.83
2022-10-23T20:17:47.800Z,16.91
2022-10-23T20:21:30.704Z,17.00
2022-10-23T20:25:13.366Z,17.08
2022-10-23T20:28:57.093Z,17.20
2022-10-23T20:32:41.511Z,17.32
2022-10-23T20:36:27.187Z,17.95
2022-10-23T20:40:10.530Z,18.41
2022-10-23T20:43:53.134Z,18.44
2022-10-23T20:47:35.775Z,18.25
2022-10-23T20:51:21.622Z,18.13
2022-10-23T20:55:04.543Z,18.00
2022-10-23T20:58:47.328Z,17.84
2022-10-23T21:02:29.975Z,17.65
2022-10-23T21:06:14.559Z,17.50
2022-10-23T21:09:58.545Z,17.43
2022-10-23T21:13:41.172Z,17.42
2022-10-23T21:17:23.853Z,17.47
2022-10-23T21:21:06.737Z,17.40
2022-10-23T21:24:49.443Z,17.24
2022-10-23T21:28:34.012Z,17.00
2022-10-23T21:32:16.677Z,16.85
2022-10-23T21:36:12.853Z,16.82
2022-10-23T21:39:56.412Z,16.69
2022-10-23T21:43:40.543Z,16.61
2022-10-23T21:47:23.647Z,16.56
2022-10-23T21:51:06.544Z,16.58
2022-10-23T21:54:52.875Z,16.57
2022-10-23T21:58:35.550Z,16.54
2022-10-23T22:02:19.572Z,16.50
2022-10-23T22:06:02.259Z,16.50
2022-10-23T22:09:45.083Z,16.49
2022-10-23T22:13:27.703Z,16.53
2022-10-23T22:17:10.403Z,16.62
2022-10-23T22:21:01.390Z,16.62
2022-10-23T22:24:44.129Z,16.76
2022-10-23T22:28:26.732Z,16.79
2022-10-23T22:32:09.396Z,16.78
2022-10-23T22:35:52.075Z,16.88
2022-10-23T22:39:36.091Z,16.86
2022-10-23T22:43:18.833Z,16.81
2022-10-23T22:47:01.475Z,16.79
2022-10-23T22:50:44.084Z,16.81
2022-10-23T22:54:26.737Z,16.99
2022-10-23T22:58:10.784Z,16.96
2022-10-23T23:01:53.483Z,17.04
2022-10-23T23:09:25.343Z,17.04
2022-10-23T23:13:09.849Z,17.15
2022-10-23T23:16:52.988Z,17.17
2022-10-23T23:20:35.821Z,17.18
2022-10-23T23:24:18.463Z,17.25
2022-10-23T23:28:01.115Z,17.16
2022-10-23T23:31:45.360Z,17.22
2022-10-23T23:35:29.333Z,17.22
2022-10-23T23:39:12.092Z,17.11
2022-10-23T23:42:54.725Z,17.11
2022-10-23T23:46:37.382Z,17.19
2022-10-23T23:50:21.883Z,17.19
2022-10-23T23:54:04.803Z,17.22
2022-10-23T23:57:47.617Z,17.25
